Time;durP1;ratioP1;P1;durP2;ratioP2;P2;SDS_P1;SDS_P2;PMS_P1;PMS_P2;Temp;Humidity;BMP_temperature;BMP_pressure;BME280_temperature;BME280_humidity;BME280_pressure;Samples;Min_cycle;Max_cycle;Signal;HPM_P1;HPM_P2
2024/04/17 00:01:41;;;;;;;0.40;0.40;;;8.40;78.80;;;;;;5422932;26;20042;-93
2024/04/17 00:04:08;;;;;;;1.42;0.60;;;8.40;78.40;;;;;;5423973;26;19996;-90
2024/04/17 00:06:35;;;;;;;0.60;0.60;;;8.20;78.90;;;;;;5397037;26;20001;-91
2024/04/17 00:09:06;;;;;;;0.47;0.47;;;8.20;79.60;;;;;;5410740;26;19995;-90
2024/04/17 00:11:36;;;;;;;1.40;0.50;;;8.10;80.30;;;;;;5408133;26;20039;-96
2024/04/17 00:14:03;;;;;;;1.27;0.60;;;7.90;81.30;;;;;;5419387;26;19999;-95
2024/04/17 00:16:33;;;;;;;0.60;0.60;;;7.90;82.00;;;;;;5394581;26;20011;-95
2024/04/17 00:19:01;;;;;;;0.50;0.50;;;7.90;83.00;;;;;;5398000;26;19996;-92
2024/04/17 00:21:28;;;;;;;0.60;0.60;;;7.90;83.50;;;;;;5378264;26;20008;-92
2024/04/17 00:23:55;;;;;;;0.70;0.70;;;7.90;83.90;;;;;;5422798;26;20007;-91
2024/04/17 00:26:22;;;;;;;0.63;0.60;;;7.80;83.90;;;;;;5394097;26;20012;-91
2024/04/17 00:28:49;;;;;;;0.90;0.80;;;7.80;84.50;;;;;;5424389;26;19999;-92
2024/04/17 00:31:16;;;;;;;1.92;0.77;;;7.80;85.80;;;;;;5398137;26;20438;-92
2024/04/17 00:33:44;;;;;;;0.68;0.68;;;7.80;85.50;;;;;;5405619;26;20526;-94
2024/04/17 00:36:11;;;;;;;2.25;0.80;;;7.80;86.30;;;;;;5397254;26;20019;-92
2024/04/17 00:38:38;;;;;;;0.60;0.60;;;7.80;87.10;;;;;;5419547;26;20044;-95
2024/04/17 00:41:05;;;;;;;1.42;0.80;;;7.80;87.00;;;;;;5419190;26;20004;-90
2024/04/17 00:43:33;;;;;;;0.70;0.70;;;7.80;88.10;;;;;;5424901;26;20089;-95
2024/04/17 00:46:00;;;;;;;0.85;0.85;;;7.70;88.20;;;;;;5400756;26;20010;-95
2024/04/17 00:48:27;;;;;;;0.75;0.75;;;7.80;88.10;;;;;;5410358;26;20015;-95
2024/04/17 00:50:57;;;;;;;1.50;1.40;;;7.80;90.00;;;;;;5395486;26;20003;-94
2024/04/17 00:53:26;;;;;;;1.77;1.00;;;7.70;90.30;;;;;;5390686;26;19996;-95
2024/04/17 00:55:57;;;;;;;1.00;0.90;;;7.60;91.00;;;;;;5402021;26;19999;-95
2024/04/17 00:58:27;;;;;;;0.70;0.65;;;7.60;91.30;;;;;;5400706;26;20077;-90
2024/04/17 01:00:55;;;;;;;0.90;0.90;;;7.50;91.50;;;;;;5385744;26;20031;-90
2024/04/17 01:03:25;;;;;;;0.90;0.90;;;7.50;91.50;;;;;;5409866;26;20000;-90
2024/04/17 01:05:54;;;;;;;1.23;1.00;;;7.40;91.90;;;;;;5421866;26;20000;-91
2024/04/17 01:08:21;;;;;;;1.10;1.05;;;7.40;92.00;;;;;;5415796;26;20069;-91
2024/04/17 01:11:01;;;;;;;0.95;0.85;;;7.50;92.00;;;;;;5414792;26;20000;-90
2024/04/17 01:13:29;;;;;;;0.93;0.88;;;7.40;92.50;;;;;;5399382;26;20050;-89
2024/04/17 01:15:57;;;;;;;0.98;0.98;;;7.30;92.80;;;;;;5421057;26;20152;-91
2024/04/17 01:18:30;;;;;;;1.00;1.00;;;7.30;93.00;;;;;;5420836;26;19995;-89
2024/04/17 01:21:00;;;;;;;0.98;0.98;;;7.30;93.50;;;;;;5385567;26;20020;-91
2024/04/17 01:23:27;;;;;;;1.13;1.00;;;7.30;93.80;;;;;;5386847;26;20070;-90
2024/04/17 01:25:57;;;;;;;0.80;0.80;;;7.20;93.90;;;;;;5385970;26;20007;-90
2024/04/17 01:28:26;;;;;;;3.17;1.40;;;7.30;94.20;;;;;;5385731;26;20007;-89
2024/04/17 01:30:56;;;;;;;4.00;1.30;;;7.30;94.20;;;;;;5392237;26;20007;-90
2024/04/17 01:33:25;;;;;;;1.10;1.10;;;7.20;94.50;;;;;;5399621;26;20388;-90
2024/04/17 01:35:54;;;;;;;1.33;1.23;;;7.20;94.70;;;;;;5394234;26;19997;-90
2024/04/17 01:38:27;;;;;;;1.38;1.20;;;7.10;95.10;;;;;;5391331;26;20135;-89
2024/04/17 01:40:54;;;;;;;1.35;1.25;;;7.10;95.20;;;;;;5410090;26;20001;-90
2024/04/17 01:43:21;;;;;;;1.40;1.30;;;7.10;95.50;;;;;;5421060;26;20003;-90
2024/04/17 01:45:48;;;;;;;1.60;1.50;;;7.10;96.20;;;;;;5417605;26;20012;-90
2024/04/17 01:48:15;;;;;;;2.65;1.52;;;7.10;96.60;;;;;;5420742;26;20000;-90
2024/04/17 01:50:42;;;;;;;1.75;1.65;;;7.00;96.60;;;;;;5414185;26;20050;-90
2024/04/17 01:53:12;;;;;;;1.40;1.30;;;7.00;96.70;;;;;;5392581;26;20011;-91
2024/04/17 01:55:39;;;;;;;1.50;1.40;;;7.00;97.40;;;;;;5405287;26;20491;-90
2024/04/17 01:58:09;;;;;;;1.85;1.55;;;7.00;97.40;;;;;;5406625;26;20361;-91
2024/04/17 02:00:38;;;;;;;2.70;1.63;;;7.00;97.60;;;;;;5417557;26;20007;-90
2024/04/17 02:03:06;;;;;;;3.67;1.67;;;7.00;98.00;;;;;;5413721;26;20070;-91
2024/04/17 02:05:33;;;;;;;1.95;1.85;;;7.00;98.30;;;;;;5405484;26;20000;-91
2024/04/17 02:08:00;;;;;;;2.33;1.80;;;7.00;98.80;;;;;;5384460;26;19997;-92
2024/04/17 02:10:32;;;;;;;2.15;2.00;;;7.00;98.90;;;;;;5399639;26;20006;-94
2024/04/17 02:12:59;;;;;;;1.95;1.85;;;7.00;98.70;;;;;;5399246;26;20012;-94
2024/04/17 02:15:26;;;;;;;2.50;2.30;;;7.00;99.00;;;;;;5426708;26;19996;-93
2024/04/17 02:17:53;;;;;;;4.10;2.15;;;7.10;98.80;;;;;;5426100;26;20066;-94
2024/04/17 02:20:21;;;;;;;3.15;2.50;;;7.10;99.10;;;;;;5426302;26;20000;-96
2024/04/17 02:22:52;;;;;;;3.45;2.47;;;7.10;99.80;;;;;;5398052;26;20329;-94
2024/04/17 02:25:19;;;;;;;4.70;2.67;;;7.00;99.90;;;;;;5399825;26;20015;-94
2024/04/17 02:27:46;;;;;;;2.63;2.42;;;7.00;99.90;;;;;;5425330;26;20004;-95
2024/04/17 02:30:14;;;;;;;2.72;2.53;;;7.10;99.90;;;;;;5422992;26;20008;-95
2024/04/17 02:32:42;;;;;;;2.58;2.38;;;7.00;99.90;;;;;;5405539;26;20011;-94
2024/04/17 02:35:11;;;;;;;2.60;2.40;;;7.00;99.90;;;;;;5390854;26;20020;-89
2024/04/17 02:37:38;;;;;;;2.65;2.45;;;7.00;99.90;;;;;;5419131;26;19999;-88
2024/04/17 02:40:12;;;;;;;2.88;2.60;;;7.00;99.90;;;;;;5384411;26;20019;-89
2024/04/17 02:42:39;;;;;;;3.03;2.70;;;7.00;99.90;;;;;;5383439;26;20008;-89
2024/04/17 02:45:06;;;;;;;4.03;3.13;;;7.00;99.90;;;;;;5383571;26;20464;-89
2024/04/17 02:47:35;;;;;;;4.53;2.53;;;7.00;99.90;;;;;;5387583;26;20000;-89
2024/04/17 02:50:06;;;;;;;3.47;2.45;;;7.00;99.90;;;;;;5401852;26;20055;-94
2024/04/17 02:52:35;;;;;;;3.67;2.58;;;7.00;99.90;;;;;;5425303;26;20003;-95
2024/04/17 02:55:02;;;;;;;2.65;2.45;;;7.10;99.90;;;;;;5424924;26;20020;-94
2024/04/17 02:57:29;;;;;;;2.55;2.35;;;7.00;99.90;;;;;;5391779;26;20008;-94
2024/04/17 02:59:56;;;;;;;2.40;2.20;;;7.00;99.90;;;;;;5408305;26;19996;-94
2024/04/17 03:02:26;;;;;;;2.40;2.20;;;7.00;99.90;;;;;;5389708;26;20010;-93
2024/04/17 03:04:53;;;;;;;2.88;2.67;;;7.00;99.90;;;;;;5389870;26;20070;-95
2024/04/17 03:07:20;;;;;;;2.50;2.30;;;7.00;99.90;;;;;;5396030;26;20422;-95
2024/04/17 03:09:50;;;;;;;2.35;2.15;;;7.00;99.90;;;;;;5422067;26;20007;-95
2024/04/17 03:12:18;;;;;;;4.47;2.40;;;7.00;99.80;;;;;;5397477;26;20012;-94
2024/04/17 03:14:47;;;;;;;2.35;2.15;;;7.00;99.90;;;;;;5403640;26;20069;-95
2024/04/17 03:17:14;;;;;;;2.58;2.38;;;7.00;99.80;;;;;;5424893;26;20011;-96
2024/04/17 03:19:41;;;;;;;2.58;2.17;;;7.00;99.70;;;;;;5424385;26;20014;-95
2024/04/17 03:22:09;;;;;;;3.25;2.45;;;7.00;99.80;;;;;;5389393;26;20021;-95
2024/04/17 03:24:36;;;;;;;3.15;2.00;;;7.00;99.70;;;;;;5388442;26;20009;-96
2024/04/17 03:27:03;;;;;;;2.35;2.13;;;7.00;99.80;;;;;;5408075;26;20032;-95
2024/04/17 03:29:30;;;;;;;3.50;2.40;;;7.00;99.90;;;;;;5416116;26;20000;-95
2024/04/17 03:32:02;;;;;;;2.50;2.30;;;7.00;99.90;;;;;;5413472;26;19999;-93
2024/04/17 03:34:29;;;;;;;2.42;2.22;;;7.00;99.90;;;;;;5424074;26;20016;-94
2024/04/17 03:36:57;;;;;;;2.40;2.20;;;7.00;99.90;;;;;;5401541;26;19996;-94
2024/04/17 03:39:26;;;;;;;2.20;2.00;;;7.10;99.90;;;;;;5396044;26;20389;-94
2024/04/17 03:41:53;;;;;;;1.88;1.77;;;7.10;99.90;;;;;;5396529;26;20007;-94
2024/04/17 03:44:23;;;;;;;2.60;2.20;;;7.10;99.90;;;;;;5396212;26;20013;-95
2024/04/17 03:46:50;;;;;;;2.35;2.15;;;7.10;99.90;;;;;;5395363;26;20463;-95
2024/04/17 03:49:25;;;;;;;2.45;2.25;;;7.10;99.90;;;;;;5416448;26;20003;-90
2024/04/17 03:51:52;;;;;;;2.58;2.17;;;7.10;99.90;;;;;;5407394;26;20007;-90
2024/04/17 03:54:19;;;;;;;2.63;2.08;;;7.10;99.90;;;;;;5425204;26;20011;-89
2024/04/17 03:56:46;;;;;;;2.20;2.00;;;7.10;99.90;;;;;;5425134;26;20325;-90
2024/04/17 03:59:13;;;;;;;2.70;2.50;;;7.10;99.90;;;;;;5425397;26;20077;-90
2024/04/17 04:01:45;;;;;;;2.33;1.98;;;7.20;99.90;;;;;;5399538;26;19995;-89
2024/04/17 04:04:12;;;;;;;2.50;2.30;;;7.20;99.90;;;;;;5423631;26;20007;-89
2024/04/17 04:06:39;;;;;;;3.95;2.90;;;7.20;99.90;;;;;;5424463;26;19999;-89
2024/04/17 04:09:06;;;;;;;2.60;2.40;;;7.20;99.90;;;;;;5415703;26;20007;-91
2024/04/17 04:11:33;;;;;;;2.85;2.65;;;7.20;99.80;;;;;;5395447;26;20453;-88
2024/04/17 04:14:01;;;;;;;2.65;2.45;;;7.20;99.90;;;;;;5388996;26;20002;-90
2024/04/17 04:16:28;;;;;;;73.45;31.45;;;7.20;99.90;;;;;;5389940;26;20004;-90
2024/04/17 04:18:55;;;;;;;6.07;4.40;;;7.20;99.90;;;;;;5390585;26;20024;-89
2024/04/17 04:21:22;;;;;;;3.53;3.13;;;7.20;99.80;;;;;;5401938;26;20012;-90
2024/04/17 04:23:52;;;;;;;2.78;2.58;;;7.20;99.70;;;;;;5393160;26;20022;-91
2024/04/17 04:26:19;;;;;;;2.90;2.70;;;7.20;99.60;;;;;;5391420;26;20008;-91
2024/04/17 04:28:49;;;;;;;2.97;2.67;;;7.20;99.60;;;;;;5418629;26;20011;-92
2024/04/17 04:31:18;;;;;;;3.33;3.10;;;7.20;99.70;;;;;;5400460;26;19997;-91
2024/04/17 04:33:46;;;;;;;2.90;2.60;;;7.20;99.70;;;;;;5422920;26;20007;-93
2024/04/17 04:36:13;;;;;;;4.28;3.05;;;7.20;99.60;;;;;;5416732;26;20003;-91
2024/04/17 04:38:44;;;;;;;2.85;2.55;;;7.20;99.70;;;;;;5423281;26;20000;-92
2024/04/17 04:41:11;;;;;;;2.92;2.72;;;7.30;99.90;;;;;;5402695;26;20068;-92
2024/04/17 04:43:38;;;;;;;3.55;3.25;;;7.30;99.90;;;;;;5426438;26;20000;-93
2024/04/17 04:46:05;;;;;;;3.88;2.75;;;7.30;99.90;;;;;;5427887;26;20027;-91
2024/04/17 04:48:37;;;;;;;3.08;2.80;;;7.20;99.90;;;;;;5392624;26;20443;-92
2024/04/17 04:51:04;;;;;;;2.90;2.70;;;7.20;99.90;;;;;;5418318;26;19995;-92
2024/04/17 04:53:33;;;;;;;2.92;2.47;;;7.30;99.90;;;;;;5392659;26;20004;-92
2024/04/17 04:56:03;;;;;;;4.00;2.90;;;7.30;99.90;;;;;;5383452;26;20401;-92
2024/04/17 04:58:31;;;;;;;4.47;3.10;;;7.30;99.90;;;;;;5383098;26;19992;-91
2024/04/17 05:00:58;;;;;;;6.30;3.08;;;7.30;99.90;;;;;;5403770;26;20015;-92
2024/04/17 05:03:28;;;;;;;2.97;2.78;;;7.40;99.90;;;;;;5395810;26;20018;-90
2024/04/17 05:05:55;;;;;;;3.20;2.90;;;7.40;99.90;;;;;;5384024;26;20000;-92
2024/04/17 05:08:22;;;;;;;4.25;3.65;;;7.50;99.90;;;;;;5384095;26;20000;-92
2024/04/17 05:10:51;;;;;;;3.33;3.03;;;7.50;99.90;;;;;;5409904;26;20008;-92
2024/04/17 05:13:19;;;;;;;3.65;2.90;;;7.60;99.90;;;;;;5419324;26;20011;-92
2024/04/17 05:15:46;;;;;;;4.85;3.35;;;7.70;99.50;;;;;;5413292;26;20524;-92
2024/04/17 05:18:13;;;;;;;3.05;2.78;;;7.70;99.30;;;;;;5398725;26;19996;-92
2024/04/17 05:20:43;;;;;;;4.03;2.97;;;7.70;99.30;;;;;;5403170;26;20073;-93
2024/04/17 05:23:12;;;;;;;3.28;2.90;;;7.80;99.10;;;;;;5385704;26;20019;-92
2024/04/17 05:25:40;;;;;;;4.65;2.95;;;7.80;98.90;;;;;;5384242;26;20004;-92
2024/04/17 05:28:07;;;;;;;3.30;3.00;;;7.90;98.80;;;;;;5399995;26;20000;-93
2024/04/17 05:30:34;;;;;;;3.85;3.08;;;7.90;98.60;;;;;;5407698;26;20072;-91
2024/04/17 05:33:01;;;;;;;3.90;3.50;;;8.00;98.30;;;;;;5397375;26;19999;-92
2024/04/17 05:35:30;;;;;;;3.80;3.50;;;8.10;97.90;;;;;;5418969;26;19995;-92
2024/04/17 05:37:57;;;;;;;3.53;3.22;;;8.20;97.40;;;;;;5418954;26;20003;-91
2024/04/17 05:40:27;;;;;;;3.45;3.10;;;8.30;96.80;;;;;;5392742;26;20051;-92
2024/04/17 05:42:56;;;;;;;4.07;3.78;;;8.40;97.00;;;;;;5411793;26;20012;-92
2024/04/17 05:45:23;;;;;;;3.42;3.13;;;8.50;96.60;;;;;;5408379;26;20004;-92
2024/04/17 05:47:50;;;;;;;3.67;3.38;;;8.60;96.10;;;;;;5399012;26;20011;-92
2024/04/17 05:50:17;;;;;;;2.90;2.70;;;8.50;95.40;;;;;;5418222;26;20011;-93
2024/04/17 05:52:46;;;;;;;5.43;2.30;;;8.50;94.90;;;;;;5416567;26;20010;-93
2024/04/17 05:55:14;;;;;;;2.45;2.25;;;8.40;95.10;;;;;;5413140;26;20058;-94
2024/04/17 05:57:47;;;;;;;2.60;2.40;;;8.30;95.00;;;;;;5383895;26;20070;-95
2024/04/17 06:00:19;;;;;;;2.78;2.58;;;8.30;94.60;;;;;;5403223;26;20038;-96
2024/04/17 06:02:46;;;;;;;2.92;2.72;;;8.30;94.60;;;;;;5409148;26;20007;-96
2024/04/17 06:05:13;;;;;;;2.72;2.53;;;8.30;94.30;;;;;;5417707;26;19999;-94
2024/04/17 06:07:40;;;;;;;3.28;2.97;;;8.30;94.70;;;;;;5414865;26;20012;-96
2024/04/17 06:10:08;;;;;;;3.47;3.17;;;8.40;94.70;;;;;;5397809;26;19999;-96
2024/04/17 06:12:35;;;;;;;4.80;3.05;;;8.40;94.00;;;;;;5384209;26;20467;-92
2024/04/17 06:15:02;;;;;;;2.78;2.45;;;8.40;93.70;;;;;;5394772;26;20058;-96
2024/04/17 06:17:31;;;;;;;2.22;2.13;;;8.50;93.60;;;;;;5414168;26;20004;-93
2024/04/17 06:19:59;;;;;;;2.40;2.20;;;8.40;93.70;;;;;;5412212;26;20465;-92
2024/04/17 06:22:26;;;;;;;3.35;3.05;;;8.40;93.40;;;;;;5412892;26;20018;-96
2024/04/17 06:24:54;;;;;;;3.33;3.03;;;8.40;93.20;;;;;;5420822;26;20035;-95
2024/04/17 06:27:21;;;;;;;3.97;3.33;;;8.30;92.90;;;;;;5415408;26;20015;-94
2024/04/17 06:29:48;;;;;;;4.25;3.17;;;8.30;93.30;;;;;;5395397;26;20004;-94
2024/04/17 09:15:59;;;;;;;3.30;3.00;;;10.90;65.50;;;;;;5374936;26;20018;-93
2024/04/17 09:18:28;;;;;;;3.90;3.40;;;10.90;66.10;;;;;;5414547;26;20004;-94
2024/04/17 09:20:57;;;;;;;3.60;3.30;;;11.00;66.50;;;;;;5415216;26;20004;-93
2024/04/17 09:23:24;;;;;;;3.70;3.40;;;11.00;66.00;;;;;;5384020;26;20442;-94
2024/04/17 09:25:55;;;;;;;6.80;3.92;;;11.10;67.50;;;;;;5404043;26;20082;-94
2024/04/17 09:28:27;;;;;;;4.43;4.03;;;11.20;65.90;;;;;;5384260;26;20438;-93
2024/04/17 09:30:56;;;;;;;4.00;3.58;;;11.20;64.60;;;;;;5404653;26;20010;-93
2024/04/17 09:33:23;;;;;;;4.35;3.95;;;11.00;64.90;;;;;;5395536;26;19996;-92
2024/04/17 09:35:51;;;;;;;4.47;3.72;;;11.00;65.20;;;;;;5413077;26;20032;-93
2024/04/17 09:38:21;;;;;;;5.15;3.88;;;11.00;66.70;;;;;;5419890;26;20041;-92
2024/04/17 09:40:51;;;;;;;4.07;3.67;;;11.10;66.00;;;;;;5406557;26;20008;-94
2024/04/17 09:43:29;;;;;;;4.30;3.90;;;11.20;67.20;;;;;;5404643;26;20028;-93
2024/04/17 09:46:08;;;;;;;4.45;3.70;;;11.40;67.40;;;;;;5419212;26;20397;-94
2024/04/17 09:48:41;;;;;;;4.38;3.63;;;11.70;68.00;;;;;;5407051;26;20011;-93
2024/04/17 09:51:10;;;;;;;3.90;3.28;;;11.80;65.00;;;;;;5409791;26;20073;-93
2024/04/17 09:53:48;;;;;;;3.70;3.30;;;12.10;64.60;;;;;;5413278;26;20438;-94
2024/04/17 09:56:16;;;;;;;3.70;3.40;;;12.30;61.60;;;;;;5408914;26;20077;-94
2024/04/17 09:58:46;;;;;;;5.00;3.20;;;12.30;61.40;;;;;;5405744;26;20338;-93
2024/04/17 10:01:30;;;;;;;4.35;3.53;;;12.20;60.50;;;;;;5412355;26;20015;-94
2024/04/17 10:04:01;;;;;;;3.55;3.05;;;12.30;61.10;;;;;;5411202;26;20353;-95
2024/04/17 10:06:30;;;;;;;3.83;3.35;;;12.40;62.00;;;;;;5400068;26;19996;-94
2024/04/17 10:08:58;;;;;;;3.45;3.15;;;12.50;60.50;;;;;;5398908;26;20134;-94
2024/04/17 10:11:29;;;;;;;3.60;3.30;;;12.60;59.20;;;;;;5395102;26;20435;-93
2024/04/17 10:13:57;;;;;;;4.03;3.00;;;12.40;58.50;;;;;;5390029;26;20008;-94
2024/04/17 10:16:25;;;;;;;6.10;3.40;;;12.20;59.00;;;;;;5393238;26;20407;-93
2024/04/17 10:18:55;;;;;;;4.03;3.33;;;11.90;59.80;;;;;;5392315;26;20015;-93
2024/04/17 10:21:26;;;;;;;3.55;3.25;;;11.70;60.80;;;;;;5388376;26;20010;-94
2024/04/17 10:24:02;;;;;;;5.43;3.75;;;11.50;60.70;;;;;;5383163;26;19996;-93
2024/04/17 10:26:54;;;;;;;4.20;3.70;;;11.40;62.10;;;;;;5391620;26;20068;-93
2024/04/17 10:29:28;;;;;;;4.53;3.97;;;11.20;63.30;;;;;;5409814;26;20024;-94
2024/04/17 10:31:55;;;;;;;;;;;11.20;66.90;;;;;;5420057;26;20069;-93
2024/04/17 10:34:23;;;;;;;4.45;4.05;;;11.30;66.50;;;;;;5398783;26;19925;-95
2024/04/17 10:37:09;;;;;;;4.90;4.03;;;11.40;65.50;;;;;;5412343;26;20000;-94
2024/04/17 10:39:39;;;;;;;5.38;4.50;;;11.50;64.80;;;;;;5398833;26;20412;-90
2024/04/17 10:42:07;;;;;;;4.30;3.90;;;11.50;64.80;;;;;;5415637;26;20069;-91
2024/04/17 10:44:35;;;;;;;4.68;4.18;;;11.40;64.60;;;;;;5420452;26;20024;-92
2024/04/17 10:47:06;;;;;;;4.35;3.95;;;11.60;63.40;;;;;;5414700;26;20012;-91
2024/04/17 10:49:41;;;;;;;4.70;4.20;;;11.60;63.00;;;;;;5424470;26;19997;-92
2024/04/17 10:52:12;;;;;;;7.20;4.10;;;11.70;62.20;;;;;;5392308;26;19996;-90
2024/04/17 10:54:39;;;;;;;5.15;4.00;;;11.40;61.00;;;;;;5386910;26;20008;-92
2024/04/17 10:57:06;;;;;;;5.60;3.58;;;11.30;62.30;;;;;;5403614;26;20072;-91
2024/04/17 10:59:34;;;;;;;4.47;3.53;;;11.50;61.20;;;;;;5408041;26;20058;-92
2024/04/17 11:02:01;;;;;;;3.85;3.40;;;11.70;61.80;;;;;;5422008;26;19995;-91
2024/04/17 11:04:30;;;;;;;4.50;3.40;;;12.00;60.10;;;;;;5408462;26;20010;-90
2024/04/17 11:06:57;;;;;;;3.95;3.47;;;12.20;59.00;;;;;;5387943;26;20000;-95
2024/04/17 11:09:30;;;;;;;5.95;3.75;;;12.40;58.60;;;;;;5387706;26;20021;-96
2024/04/17 11:12:02;;;;;;;3.95;3.50;;;12.50;58.60;;;;;;5388026;26;20003;-94
2024/04/17 11:14:29;;;;;;;3.80;3.50;;;12.40;58.30;;;;;;5398445;26;20463;-95
2024/04/17 11:17:01;;;;;;;3.92;3.53;;;12.40;60.20;;;;;;5420106;26;20470;-94
2024/04/17 11:19:29;;;;;;;4.90;4.28;;;12.30;61.60;;;;;;5423921;26;20458;-96
2024/04/17 11:21:57;;;;;;;3.72;3.33;;;12.20;62.80;;;;;;5400138;26;20012;-94
2024/04/17 11:24:24;;;;;;;5.32;3.70;;;12.10;61.70;;;;;;5388069;26;20004;-95
2024/04/17 11:26:54;;;;;;;5.93;3.78;;;12.10;62.30;;;;;;5402284;26;20049;-95
2024/04/17 11:29:23;;;;;;;4.70;3.65;;;12.10;60.70;;;;;;5422821;26;19992;-94
2024/04/17 11:32:06;;;;;;;4.15;3.75;;;12.10;60.40;;;;;;5416078;26;19999;-94
2024/04/17 11:34:33;;;;;;;3.75;3.22;;;12.30;61.80;;;;;;5421604;26;20015;-95
2024/04/17 11:37:05;;;;;;;3.60;3.20;;;12.50;60.00;;;;;;5422031;26;20007;-94
2024/04/17 11:39:33;;;;;;;3.88;3.47;;;12.80;59.50;;;;;;5415517;26;20004;-94
2024/04/17 11:42:07;;;;;;;5.10;3.38;;;13.10;57.70;;;;;;5419537;26;20324;-94
2024/04/17 11:44:41;;;;;;;3.83;3.35;;;13.20;56.70;;;;;;5402029;26;20470;-94
2024/04/17 11:47:14;;;;;;;3.35;3.05;;;13.40;57.50;;;;;;5385988;26;20003;-96
2024/04/17 11:49:42;;;;;;;3.55;3.25;;;13.30;54.60;;;;;;5386319;26;20024;-95
2024/04/17 11:52:10;;;;;;;5.20;2.67;;;13.20;54.30;;;;;;5415954;26;20000;-94
2024/04/17 11:54:38;;;;;;;7.07;3.00;;;13.00;54.60;;;;;;5404352;26;20011;-94
2024/04/17 11:57:11;;;;;;;4.00;2.67;;;12.80;54.30;;;;;;5418474;26;20007;-95
2024/04/17 11:59:44;;;;;;;4.35;3.15;;;12.80;55.10;;;;;;5400416;26;19996;-95
2024/04/17 12:02:11;;;;;;;4.18;3.78;;;13.20;57.70;;;;;;5420772;26;20008;-94
2024/04/17 12:04:38;;;;;;;5.97;3.13;;;13.30;54.50;;;;;;5400841;26;20006;-94
2024/04/17 12:07:06;;;;;;;3.78;2.78;;;13.10;55.50;;;;;;5407189;26;20011;-94
2024/04/17 12:09:33;;;;;;;3.30;2.78;;;12.80;58.00;;;;;;5409644;26;20024;-95
2024/04/17 12:12:00;;;;;;;3.35;2.60;;;12.50;58.70;;;;;;5409656;26;20008;-94
2024/04/17 12:14:27;;;;;;;2.88;2.25;;;12.20;59.80;;;;;;5417851;26;20000;-94
2024/04/17 12:16:56;;;;;;;2.53;2.33;;;11.80;61.50;;;;;;5420557;26;20004;-93
2024/04/17 12:19:27;;;;;;;4.05;3.10;;;11.40;63.00;;;;;;5420103;26;19999;-90
2024/04/17 12:21:54;;;;;;;3.92;3.17;;;11.00;65.80;;;;;;5403909;26;20007;-92
2024/04/17 12:26:49;;;;;;;5.45;3.88;;;10.60;69.40;;;;;;5390593;26;20073;-90
2024/04/17 12:27:09;;;;;;;4.90;3.67;;;10.30;72.10;;;;;;5386325;26;20012;-89
2024/04/17 12:29:38;;;;;;;3.75;3.20;;;10.10;75.10;;;;;;5385032;26;20015;-90
2024/04/17 12:32:08;;;;;;;6.75;4.30;;;10.00;77.40;;;;;;5392416;26;19996;-90
2024/04/17 12:34:35;;;;;;;5.50;4.05;;;9.90;81.40;;;;;;5406109;26;20077;-89
2024/04/17 12:37:03;;;;;;;5.55;3.90;;;9.80;79.80;;;;;;5385630;26;20032;-90
2024/04/17 12:39:29;;;;;;;7.80;4.13;;;9.60;81.80;;;;;;5384394;26;20458;-90
2024/04/17 12:41:56;;;;;;;3.80;3.40;;;9.40;83.00;;;;;;5398145;26;20004;-90
2024/04/17 12:44:23;;;;;;;4.60;3.85;;;9.30;84.20;;;;;;5413079;26;20408;-90
2024/04/17 12:46:50;;;;;;;4.38;3.83;;;9.20;84.10;;;;;;5400242;26;20007;-90
2024/04/17 12:49:17;;;;;;;4.28;3.65;;;9.20;84.50;;;;;;5420158;26;20399;-90
2024/04/17 12:51:45;;;;;;;4.30;3.47;;;9.20;83.90;;;;;;5384628;26;20011;-90
2024/04/17 12:54:12;;;;;;;3.85;3.35;;;9.30;85.10;;;;;;5384267;26;20065;-90
2024/04/17 12:56:41;;;;;;;4.32;3.40;;;9.60;87.30;;;;;;5412295;26;20077;-90
2024/04/17 12:59:09;;;;;;;4.32;3.90;;;9.80;85.80;;;;;;5403411;26;20004;-90
2024/04/17 13:01:36;;;;;;;4.38;3.63;;;10.10;88.90;;;;;;5416621;26;19995;-90
2024/04/17 13:04:03;;;;;;;5.10;3.58;;;10.50;90.10;;;;;;5396353;26;19995;-90
2024/04/17 13:06:30;;;;;;;4.07;3.35;;;11.00;84.40;;;;;;5401856;26;20379;-91
2024/04/17 13:09:00;;;;;;;4.75;3.13;;;11.50;81.80;;;;;;5399540;26;19996;-90
2024/04/17 13:11:28;;;;;;;3.75;3.22;;;12.00;77.40;;;;;;5397184;26;20007;-90
2024/04/17 13:13:56;;;;;;;3.95;3.17;;;12.20;71.20;;;;;;5411851;26;20005;-90
2024/04/17 13:16:23;;;;;;;3.28;2.72;;;12.20;66.60;;;;;;5396182;26;20010;-91
2024/04/17 13:18:53;;;;;;;6.65;3.10;;;12.20;69.60;;;;;;5404314;26;20001;-90
2024/04/17 13:21:20;;;;;;;5.18;3.05;;;11.90;66.10;;;;;;5397564;26;20008;-91
2024/04/17 13:23:49;;;;;;;8.23;3.30;;;11.70;65.70;;;;;;5397092;26;20074;-91
2024/04/17 13:26:19;;;;;;;4.35;3.42;;;11.70;65.90;;;;;;5411741;26;20329;-91
2024/04/17 13:28:48;;;;;;;4.32;3.00;;;11.70;66.70;;;;;;5396337;26;20334;-91
2024/04/17 13:31:15;;;;;;;4.60;3.50;;;11.70;67.10;;;;;;5399164;26;20028;-90
2024/04/17 13:33:42;;;;;;;3.38;2.97;;;11.70;66.70;;;;;;5402547;26;20446;-91
2024/04/17 13:36:12;;;;;;;4.32;3.10;;;11.60;65.50;;;;;;5418934;26;20457;-90
2024/04/17 13:38:40;;;;;;;3.65;3.25;;;11.50;67.10;;;;;;5432265;26;20071;-90
2024/04/17 13:41:09;;;;;;;4.15;3.65;;;11.40;67.50;;;;;;5409361;26;20044;-91
2024/04/17 13:43:39;;;;;;;4.85;3.50;;;11.40;68.60;;;;;;5418569;26;20033;-91
2024/04/17 13:46:16;;;;;;;6.38;3.42;;;11.50;69.50;;;;;;5418319;26;20480;-91
2024/04/17 13:48:45;;;;;;;3.97;3.28;;;11.50;68.50;;;;;;5419090;26;20046;-91
2024/04/17 13:51:16;;;;;;;3.60;3.05;;;11.60;71.50;;;;;;5400352;26;20000;-91
2024/04/17 13:53:52;;;;;;;4.53;2.90;;;11.80;70.10;;;;;;5410148;26;19999;-91
2024/04/17 13:56:20;;;;;;;;;;;12.00;68.20;;;;;;5396834;26;20362;-92
2024/04/17 13:58:49;;;;;;;4.20;2.90;;;12.20;66.30;;;;;;5409012;26;20256;-91
2024/04/17 14:01:16;;;;;;;4.18;3.17;;;12.20;64.40;;;;;;5384910;26;20007;-90
2024/04/17 14:03:45;;;;;;;3.13;2.83;;;12.40;66.40;;;;;;5416738;26;20053;-91
2024/04/17 14:06:13;;;;;;;4.30;2.90;;;12.60;65.40;;;;;;5407417;26;20007;-91
2024/04/17 14:08:41;;;;;;;5.68;2.60;;;13.00;69.20;;;;;;5405934;26;20073;-90
2024/04/17 14:11:08;;;;;;;4.03;3.03;;;13.30;62.70;;;;;;5429252;26;20011;-91
2024/04/17 14:13:35;;;;;;;4.30;2.90;;;13.60;61.90;;;;;;5418437;26;20000;-90
2024/04/17 14:16:06;;;;;;;3.85;2.85;;;13.80;60.20;;;;;;5411579;26;20011;-90
2024/04/17 14:18:36;;;;;;;4.00;3.45;;;13.90;57.50;;;;;;5385955;26;20007;-91
2024/04/17 14:21:12;;;;;;;4.15;3.75;;;14.00;57.30;;;;;;5386566;26;20007;-90
2024/04/17 14:23:39;;;;;;;4.68;3.97;;;14.00;56.20;;;;;;5392691;26;20000;-90
2024/04/17 14:26:06;;;;;;;5.35;4.03;;;13.90;57.50;;;;;;5418787;26;20000;-89
2024/04/17 14:28:33;;;;;;;4.13;3.72;;;14.00;56.40;;;;;;5417022;26;20011;-90
2024/04/17 14:31:02;;;;;;;5.20;3.83;;;14.10;57.70;;;;;;5406650;26;20125;-90
2024/04/17 14:33:35;;;;;;;5.30;3.80;;;14.20;57.50;;;;;;5418650;26;19995;-89
2024/04/17 14:36:07;;;;;;;3.70;3.35;;;14.30;57.20;;;;;;5411909;26;20004;-89
2024/04/17 14:38:41;;;;;;;4.57;3.78;;;14.20;56.30;;;;;;5387686;26;20007;-89
2024/04/17 14:41:09;;;;;;;4.03;3.53;;;14.10;56.80;;;;;;5389991;26;20000;-90
2024/04/17 14:43:36;;;;;;;4.82;3.67;;;14.00;58.30;;;;;;5390230;26;20016;-91
2024/04/17 14:46:04;;;;;;;4.53;3.80;;;14.00;58.80;;;;;;5427276;26;20069;-89
2024/04/17 14:48:34;;;;;;;3.50;3.20;;;13.70;57.70;;;;;;5399905;26;20036;-90
2024/04/17 14:51:06;;;;;;;5.72;3.20;;;13.60;59.80;;;;;;5409148;26;20003;-90
2024/04/17 14:53:35;;;;;;;5.78;3.88;;;13.50;60.50;;;;;;5418186;26;20001;-89
2024/04/17 14:56:04;;;;;;;4.38;3.72;;;13.40;59.90;;;;;;5404150;26;20008;-89
2024/04/17 14:58:32;;;;;;;4.20;3.47;;;13.30;58.60;;;;;;5385385;26;20000;-89
2024/04/17 15:00:59;;;;;;;3.40;3.10;;;13.10;59.00;;;;;;5423259;26;20015;-89
2024/04/17 15:03:27;;;;;;;4.25;3.65;;;12.90;60.40;;;;;;5401747;26;20000;-89
2024/04/17 15:06:07;;;;;;;3.72;3.42;;;12.90;61.20;;;;;;5417917;26;20004;-89
2024/04/17 15:08:38;;;;;;;3.90;3.50;;;12.80;61.60;;;;;;5405632;26;20318;-89
2024/04/17 15:11:12;;;;;;;4.20;3.10;;;12.70;60.30;;;;;;5403098;26;20337;-89
2024/04/17 15:13:42;;;;;;;5.68;2.70;;;12.50;60.80;;;;;;5400280;26;20023;-90
2024/04/17 15:16:14;;;;;;;3.78;3.10;;;12.50;62.30;;;;;;5411466;26;20078;-89
2024/04/17 15:18:41;;;;;;;3.40;3.10;;;12.50;63.40;;;;;;5400169;26;20323;-89
2024/04/17 15:21:14;;;;;;;3.15;2.63;;;12.50;61.60;;;;;;5408557;26;20014;-89
2024/04/17 15:23:46;;;;;;;3.78;3.08;;;12.40;61.10;;;;;;5407502;26;20000;-89
2024/04/17 15:26:15;;;;;;;3.10;2.78;;;12.30;60.70;;;;;;5413648;26;20008;-90
2024/04/17 15:28:43;;;;;;;4.28;3.30;;;12.30;62.20;;;;;;5411351;26;20059;-90
2024/04/17 15:31:25;;;;;;;4.65;3.15;;;12.30;62.40;;;;;;5423656;26;20012;-90
2024/04/17 15:33:55;;;;;;;4.38;3.50;;;12.20;62.30;;;;;;5417130;26;20000;-90
2024/04/17 15:36:24;;;;;;;3.55;3.25;;;12.10;61.70;;;;;;5388371;26;20068;-90
2024/04/17 15:38:51;;;;;;;3.60;2.85;;;12.00;63.50;;;;;;5384199;26;20043;-89
2024/04/17 15:41:20;;;;;;;6.45;2.22;;;11.80;63.90;;;;;;5383931;26;20043;-90
2024/04/17 15:43:56;;;;;;;2.30;1.98;;;11.60;65.40;;;;;;5413722;26;20075;-89
2024/04/17 15:46:27;;;;;;;3.03;2.40;;;11.40;66.30;;;;;;5413628;26;20000;-90